Nearby METAR Reports

 

KW29 - Stevensville, Maryland, USA
Distance from station: SSW 13mi, 21km
Updated: Tue, 17-Sep-2019 2:20am EDT
Partly cloudy
Partly cloudy
 Wind from NNE
Wind: NNE 5 mph , 7 km/h
Temperature: 72°F , 22°C
Dew Point: 68°F , 20°C
Humidity: 88%
Barometer: 30.01 inHg , 1016.3 hPa
Clouds: Partly cloudy
Visibility: 10 miles , 16 km
Cloud details: Partly cloudy 5500 ft
Partly cloudy 7500 ft
Partly cloudy 8500 ft
2019/09/17 06:20 KW29 170620Z AUTO 03004KT 10SM SCT055 SCT075 SCT085 22/20 A3001 RMK AO2
KMTN - Baltimore/Martin, Maryland, USA
Distance from station: NW 13mi, 22km
Updated: Tue, 17-Sep-2019 2:22am EDT
Rain, Overcast
Rain, Overcast
 Wind from calm
Wind: Calm
Temperature: 72°F , 22°C
Dew Point: 68°F , 20°C
Humidity: 88%
Barometer: 30.04 inHg , 1017.3 hPa
Summary: Rain
Clouds: Overcast
Visibility: 10 miles , 16 km
Cloud details: Mostly cloudy 6000 ft
Mostly cloudy 7000 ft
Overcast 8500 ft
2019/09/17 06:22 KMTN 170622Z AUTO 00000KT 10SM RA BKN060 BKN070 OVC085 22/20 A3004 RMK AO2
 
KNAK - Annapolis/Naval, Maryland, USA
Distance from station: SW 18mi, 28km
Updated: Tue, 17-Sep-2019 1:54am EDT
Mostly cloudy
Mostly cloudy
 Wind from N
Wind: N 3 mph , 6 km/h
Temperature: 79°F , 26°C
Dew Point: 68°F , 20°C
Humidity: 70%
Barometer: 30.00 inHg , 1015.9 hPa
Clouds: Mostly cloudy
Visibility: 10 miles , 16 km
Cloud details: Mostly cloudy 6000 ft
Mostly cloudy 8500 ft
2019/09/17 05:54 KNAK 170554Z AUTO 36003KT 10SM BKN060 BKN085 26/20 A3000 RMK AO2 SLP161 T02560200 10278 20244 55000
KAPG - Aberdeen/Phillip, Maryland, USA
Distance from station: NNE 21mi, 34km
Updated: Mon, 16-Sep-2019 6:51pm EDT
NOT Current
Overcast
Overcast
 Wind from NE
Wind: NE 5 mph , 7 km/h
Temperature: 77°F , 25°C
Dew Point: 66°F , 19°C
Humidity: 69%
Barometer: 29.97 inHg , 1014.9 hPa
Clouds: Overcast
Visibility: 10 miles , 16 km
Cloud details: Overcast 7000 ft
2019/09/16 22:51 KAPG 162251Z 04004KT 10SM OVC070 25/19 A2997 RMK SLP152
 
KDMH - Baltimore/Dwntwn, Maryland, USA
Distance from station: WNW 21mi, 34km
Updated: Tue, 17-Sep-2019 1:54am EDT

 
Temperature: 75°F , 24°C
Dew Point: 63°F , 17°C
Humidity: 65%
Barometer: 30.02 inHg , 1016.6 hPa
2019/09/17 05:54 KDMH 170554Z AUTO 24/17 A3002 RMK AO1 SLP166 T02440172 10283 20244 53003
KBWI - Balto/Wash Intl, Maryland, USA
Distance from station: W 23mi, 37km
Updated: Tue, 17-Sep-2019 1:54am EDT
Mostly cloudy
Mostly cloudy
 Wind from varies
Wind: varies 3 mph , 6 km/h
Temperature: 75°F , 24°C
Dew Point: 63°F , 17°C
Humidity: 65%
Barometer: 30.01 inHg , 1016.3 hPa
Clouds: Mostly cloudy
Visibility: 10 miles , 16 km
Cloud details: Mostly cloudy 7000 ft
Mostly cloudy 11000 ft
2019/09/17 05:54 KBWI 170554Z VRB03KT 10SM BKN070 BKN110 24/17 A3001 RMK AO2 SLP162 T02390172 10278 20239 53003
 
KESN - Easton/Newnam, Maryland, USA
Distance from station: SSE 27mi, 44km
Updated: Tue, 17-Sep-2019 2:39am EDT
Partly cloudy
Partly cloudy
 Wind from NNE
Wind: NNE 5 mph , 7 km/h
Temperature: 72°F , 22°C
Dew Point: 68°F , 20°C
Humidity: 88%
Barometer: 30.05 inHg , 1017.6 hPa
Clouds: Partly cloudy
Visibility: 10 miles , 16 km
Cloud details: Partly cloudy 6000 ft
2019/09/17 06:39 KESN 170639Z AUTO 02004KT 10SM SCT060 22/20 A3005 RMK AO2 T02160197
KFME - Fort Meade, Maryland, USA
Distance from station: WSW 28mi, 45km
Updated: Tue, 17-Sep-2019 2:21am EDT
Overcast
Overcast
 Wind from calm
Wind: Calm
Temperature: 68°F , 20°C
Dew Point: 64°F , 18°C
Humidity: 88%
Barometer: 30.04 inHg , 1017.3 hPa
Clouds: Overcast
Visibility: 10 miles , 16 km
Cloud details: Mostly cloudy 5500 ft
Mostly cloudy 7500 ft
Overcast 12000 ft
2019/09/17 06:21 KFME 170621Z AUTO 00000KT 10SM BKN055 BKN075 OVC120 20/18 A3004 RMK AO1
 
KCGS - College Park, Maryland, USA
Distance from station: WSW 38mi, 61km
Updated: Tue, 17-Sep-2019 2:22am EDT
Partly cloudy
Partly cloudy
 Wind from calm
Wind: Calm
Temperature: 70°F , 21°C
Dew Point: 61°F , 16°C
Humidity: 73%
Barometer: 30.01 inHg , 1016.3 hPa
Clouds: Partly cloudy
Visibility: 10 miles , 16 km
Cloud details: Partly cloudy 7500 ft
Partly cloudy 11000 ft
2019/09/17 06:22 KCGS 170622Z AUTO 00000KT 10SM SCT075 SCT110 21/16 A3001 RMK AO1 T02080156
KADW - Andrews Afb, Maryland, USA
Distance from station: SW 41mi, 66km
Updated: Tue, 17-Sep-2019 1:56am EDT
Partly cloudy
Partly cloudy
 Wind from NE
Wind: NE 7 mph , 11 km/h
Temperature: 72°F , 22°C
Dew Point: 64°F , 18°C
Humidity: 78%
Barometer: 30.01 inHg , 1016.3 hPa
Clouds: Partly cloudy
Visibility: 10 miles , 16 km
Cloud details: Few Clouds 8000 ft
Partly cloudy 9500 ft
2019/09/17 05:56 KADW 170556Z AUTO 04006KT 10SM FEW080 SCT095 22/18 A3001 RMK AO2 SLP167 T02180184 10247 20210 53001 $
 
KDOV - Dover Afb, Delaware, USA
Distance from station: E 42mi, 68km
Updated: Tue, 17-Sep-2019 1:57am EDT
Overcast
Overcast
 Wind from calm
Wind: Calm
Temperature: 70°F , 21°C
Dew Point: 68°F , 20°C
Humidity: 94%
Barometer: 30.02 inHg , 1016.6 hPa
Clouds: Overcast
Visibility: 10 miles , 16 km
Cloud details: Mostly cloudy 900 ft
Overcast 1300 ft
2019/09/17 05:57 KDOV 170557Z AUTO 00000KT 10SM BKN009 OVC013 21/20 A3002 RMK AO2 DZE56 CIG 007 RWY19 SLP169 $
KCGE - Cambridge-Dorch, Maryland, USA
Distance from station: SSE 45mi, 73km
Updated: Tue, 17-Sep-2019 2:20am EDT
Overcast
Overcast
 Wind from calm
Wind: Calm
Temperature: 72°F , 22°C
Dew Point: 68°F , 20°C
Humidity: 88%
Barometer: 30.00 inHg , 1015.9 hPa
Clouds: Overcast
Visibility: 10 miles , 16 km
Cloud details: Mostly cloudy 1100 ft
Overcast 12000 ft
2019/09/17 06:20 KCGE 170620Z AUTO 00000KT 10SM BKN011 OVC120 22/20 A3000 RMK A01
 
KDCA - Washington/Natl, Washington D.c., USA
Distance from station: WSW 47mi, 76km
Updated: Tue, 17-Sep-2019 1:52am EDT
Mostly cloudy
Mostly cloudy
 Wind from NE
Wind: NE 8 mph , 13 km/h
Temperature: 75°F , 24°C
Dew Point: 66°F , 19°C
Humidity: 74%
Barometer: 30.02 inHg , 1016.6 hPa
Clouds: Mostly cloudy
Visibility: 10 miles , 16 km
Cloud details: Mostly cloudy 8500 ft
Mostly cloudy 25000 ft
2019/09/17 05:52 KDCA 170552Z 04007KT 10SM BKN085 BKN250 24/19 A3002 RMK AO2 SLP164 T02440189 10278 20244 53004
KGAI - Gaithersburg, Maryland, USA
Distance from station: W 49mi, 78km
Updated: Tue, 17-Sep-2019 1:56am EDT
Mostly cloudy
Mostly cloudy
 Wind from calm
Wind: Calm
Temperature: 70°F , 21°C
Dew Point: 63°F , 17°C
Humidity: 78%
Barometer: 30.05 inHg , 1017.6 hPa
Clouds: Mostly cloudy
Visibility: 10 miles , 16 km
Cloud details: Mostly cloudy 11000 ft
2019/09/17 05:56 KGAI 170556Z AUTO 00000KT 10SM BKN110 21/17 A3005 RMK AO2 SLP182 T02110172 10250 20206 51004
 
KILG - Wilmington, Delaware, USA
Distance from station: NE 49mi, 79km
Updated: Tue, 17-Sep-2019 1:51am EDT
Mostly cloudy
Mostly cloudy
 Wind from NE
Wind: NE 7 mph , 11 km/h
Temperature: 70°F , 21°C
Dew Point: 66°F , 19°C
Humidity: 88%
Barometer: 30.04 inHg , 1017.3 hPa
Clouds: Mostly cloudy
Visibility: 10 miles , 16 km
Cloud details: Mostly cloudy 5000 ft
2019/09/17 05:51 KILG 170551Z AUTO 05006KT 10SM BKN050 21/19 A3004 RMK AO2 SLP172 T02110194 10256 20211 51006
KDMW - Carroll Cnty, Maryland, USA
Distance from station: NW 50mi, 80km
Updated: Tue, 17-Sep-2019 2:20am EDT
Mostly cloudy
Mostly cloudy
 Wind from NE
Wind: NE 3 mph , 6 km/h
Temperature: 70°F , 21°C
Dew Point: 66°F , 19°C
Humidity: 88%
Barometer: 30.06 inHg , 1017.9 hPa
Clouds: Mostly cloudy
Visibility: 10 miles , 16 km
Cloud details: Partly cloudy 6500 ft
Mostly cloudy 8000 ft
Mostly cloudy 10000 ft
2019/09/17 06:20 KDMW 170620Z AUTO 05003KT 10SM SCT065 BKN080 BKN100 21/19 A3006 RMK AO2